sensor_id;sensor_type;location;lat;lon;timestamp;pressure;altitude;pressure_sealevel;temperature;humidity
42247;BME280;27913;42.722;23.268;2023-06-24T13:01:33;94918.41;;;30.43;41.01
42247;BME280;27913;42.722;23.268;2023-06-24T13:03:59;94937.22;;;30.39;42.17
42247;BME280;27913;42.722;23.268;2023-06-24T13:06:24;94882.75;;;30.00;42.77
42247;BME280;27913;42.722;23.268;2023-06-24T13:08:50;94918.06;;;29.77;45.81
42247;BME280;27913;42.722;23.268;2023-06-24T13:11:17;94933.72;;;29.02;57.59
42247;BME280;27913;42.722;23.268;2023-06-24T13:13:42;94952.41;;;28.25;62.21
42247;BME280;27913;42.722;23.268;2023-06-24T13:16:08;94959.97;;;27.66;62.10
42247;BME280;27913;42.722;23.268;2023-06-24T13:18:33;94888.38;;;26.88;62.64
42247;BME280;27913;42.722;23.268;2023-06-24T13:20:59;94895.84;;;26.77;63.89
42247;BME280;27913;42.722;23.268;2023-06-24T13:23:25;94891.94;;;26.25;64.39
42247;BME280;27913;42.722;23.268;2023-06-24T13:25:50;94964.75;;;26.45;64.86
42247;BME280;27913;42.722;23.268;2023-06-24T13:28:16;94928.38;;;26.23;63.23
42247;BME280;27913;42.722;23.268;2023-06-24T13:30:41;94929.69;;;26.01;62.33
42247;BME280;27913;42.722;23.268;2023-06-24T13:33:07;95007.69;;;26.11;56.43
42247;BME280;27913;42.722;23.268;2023-06-24T13:35:33;95022.50;;;26.14;55.71
42247;BME280;27913;42.722;23.268;2023-06-24T13:37:58;94963.47;;;25.63;54.22
42247;BME280;27913;42.722;23.268;2023-06-24T13:40:24;95066.81;;;26.27;54.63
42247;BME280;27913;42.722;23.268;2023-06-24T13:42:50;95088.31;;;26.37;54.56
42247;BME280;27913;42.722;23.268;2023-06-24T13:45:16;95090.31;;;25.97;59.96
42247;BME280;27913;42.722;23.268;2023-06-24T13:49:39;95063.09;;;25.28;63.39
42247;BME280;27913;42.722;23.268;2023-06-24T13:52:04;94986.81;;;24.63;63.54
42247;BME280;27913;42.722;23.268;2023-06-24T13:54:30;94959.78;;;24.39;64.83
42247;BME280;27913;42.722;23.268;2023-06-24T13:56:58;95039.94;;;24.77;64.18
42247;BME280;27913;42.722;23.268;2023-06-24T13:59:24;95049.97;;;24.60;64.68
42247;BME280;27913;42.722;23.268;2023-06-24T14:01:49;95035.81;;;24.39;65.41
42247;BME280;27913;42.722;23.268;2023-06-24T14:04:15;95042.53;;;24.42;61.94
42247;BME280;27913;42.722;23.268;2023-06-24T14:06:40;94991.56;;;24.21;62.02
42247;BME280;27913;42.722;23.268;2023-06-24T14:09:06;94985.28;;;24.41;62.07
42247;BME280;27913;42.722;23.268;2023-06-24T14:11:31;94982.75;;;24.66;63.25
42247;BME280;27913;42.722;23.268;2023-06-24T14:13:57;95012.91;;;25.08;63.16
42247;BME280;27913;42.722;23.268;2023-06-24T14:16:22;95002.28;;;25.27;59.81
42247;BME280;27913;42.722;23.268;2023-06-24T14:18:47;94993.53;;;25.41;59.47
42247;BME280;27913;42.722;23.268;2023-06-24T14:21:13;94911.25;;;25.05;60.88
42247;BME280;27913;42.722;23.268;2023-06-24T14:23:38;94973.25;;;25.54;60.20
42247;BME280;27913;42.722;23.268;2023-06-24T14:26:05;94959.91;;;25.73;59.40
42247;BME280;27913;42.722;23.268;2023-06-24T14:28:31;94946.84;;;25.86;56.62
42247;BME280;27913;42.722;23.268;2023-06-24T14:30:56;94932.09;;;26.02;56.43
42247;BME280;27913;42.722;23.268;2023-06-24T14:33:21;94934.56;;;26.23;56.78
42247;BME280;27913;42.722;23.268;2023-06-24T14:35:47;94895.28;;;26.17;54.87
42247;BME280;27913;42.722;23.268;2023-06-24T14:38:12;94928.88;;;26.49;54.57
42247;BME280;27913;42.722;23.268;2023-06-24T14:40:38;94947.88;;;26.58;53.22
42247;BME280;27913;42.722;23.268;2023-06-24T14:43:03;94882.19;;;26.29;53.19
42247;BME280;27913;42.722;23.268;2023-06-24T14:48:09;94889.50;;;26.48;53.67
42247;BME280;27913;42.722;23.268;2023-06-24T14:50:35;94857.09;;;26.34;53.20
42247;BME280;27913;42.722;23.268;2023-06-24T14:53:01;94904.97;;;26.62;53.53
42247;BME280;27913;42.722;23.268;2023-06-24T14:55:28;94867.31;;;26.37;53.05
42247;BME280;27913;42.722;23.268;2023-06-24T14:57:54;94999.34;;;27.20;52.74
42247;BME280;27913;42.722;23.268;2023-06-24T15:00:19;94865.75;;;26.31;52.46
42247;BME280;27913;42.722;23.268;2023-06-24T15:02:44;95030.97;;;27.33;52.55
42247;BME280;27913;42.722;23.268;2023-06-24T15:05:10;95052.28;;;27.35;53.17
42247;BME280;27913;42.722;23.268;2023-06-24T15:07:35;94994.81;;;26.76;53.55
42247;BME280;27913;42.722;23.268;2023-06-24T15:10:04;95005.38;;;26.92;53.22
42247;BME280;27913;42.722;23.268;2023-06-24T15:12:29;94993.50;;;26.74;53.76
42247;BME280;27913;42.722;23.268;2023-06-24T15:14:55;95026.16;;;26.92;54.84
42247;BME280;27913;42.722;23.268;2023-06-24T15:17:20;95068.78;;;27.14;53.66
42247;BME280;27913;42.722;23.268;2023-06-24T15:19:46;95027.38;;;26.99;52.76
42247;BME280;27913;42.722;23.268;2023-06-24T15:22:11;94964.44;;;26.71;52.42
42247;BME280;27913;42.722;23.268;2023-06-24T15:24:37;94903.13;;;26.38;50.06
42247;BME280;27913;42.722;23.268;2023-06-24T15:27:02;94996.19;;;26.93;49.84
42247;BME280;27913;42.722;23.268;2023-06-24T15:29:28;95030.31;;;27.22;49.68
42247;BME280;27913;42.722;23.268;2023-06-24T15:31:53;95045.44;;;27.23;49.86
42247;BME280;27913;42.722;23.268;2023-06-24T15:34:19;95040.31;;;27.22;48.60
42247;BME280;27913;42.722;23.268;2023-06-24T15:36:44;94953.28;;;26.77;49.15
42247;BME280;27913;42.722;23.268;2023-06-24T15:39:10;95023.69;;;26.95;49.15
42247;BME280;27913;42.722;23.268;2023-06-24T15:41:36;95032.97;;;26.45;49.41
42247;BME280;27913;42.722;23.268;2023-06-24T15:44:04;95025.44;;;26.42;51.42
42247;BME280;27913;42.722;23.268;2023-06-24T15:46:30;94959.56;;;26.04;52.19
42247;BME280;27913;42.722;23.268;2023-06-24T15:48:55;94951.19;;;26.06;52.87
42247;BME280;27913;42.722;23.268;2023-06-24T15:51:21;94995.00;;;26.41;53.24
42247;BME280;27913;42.722;23.268;2023-06-24T15:53:46;94952.47;;;26.14;53.59
42247;BME280;27913;42.722;23.268;2023-06-24T15:56:12;95033.88;;;26.60;52.21
42247;BME280;27913;42.722;23.268;2023-06-24T15:58:37;95003.72;;;26.09;53.38
42247;BME280;27913;42.722;23.268;2023-06-24T16:01:03;95058.34;;;26.14;55.09
42247;BME280;27913;42.722;23.268;2023-06-24T16:03:28;95069.78;;;26.01;57.56
42247;BME280;27913;42.722;23.268;2023-06-24T16:05:54;95063.28;;;25.77;59.17
42247;BME280;27913;42.722;23.268;2023-06-24T16:08:19;95035.00;;;25.40;62.08
42247;BME280;27913;42.722;23.268;2023-06-24T16:10:46;95072.16;;;25.38;64.53
42247;BME280;27913;42.722;23.268;2023-06-24T16:13:38;94919.00;;;24.31;66.57
42247;BME280;27913;42.722;23.268;2023-06-24T16:16:04;95035.88;;;24.90;68.66
42247;BME280;27913;42.722;23.268;2023-06-24T16:18:29;94972.47;;;24.28;70.90
42247;BME280;27913;42.722;23.268;2023-06-24T16:20:55;95092.28;;;25.05;71.21
42247;BME280;27913;42.722;23.268;2023-06-24T16:23:20;95085.50;;;25.13;71.17
42247;BME280;27913;42.722;23.268;2023-06-24T16:25:46;95011.44;;;24.81;71.20
42247;BME280;27913;42.722;23.268;2023-06-24T16:28:13;94983.78;;;24.75;70.99
42247;BME280;27913;42.722;23.268;2023-06-24T16:30:39;95077.78;;;25.41;71.51
42247;BME280;27913;42.722;23.268;2023-06-24T16:33:04;95074.25;;;25.46;71.89
42247;BME280;27913;42.722;23.268;2023-06-24T16:35:30;95060.72;;;25.56;70.89
42247;BME280;27913;42.722;23.268;2023-06-24T16:37:55;94953.84;;;24.92;68.87
42247;BME280;27913;42.722;23.268;2023-06-24T16:40:24;94948.72;;;24.96;69.15
42247;BME280;27913;42.722;23.268;2023-06-24T16:42:49;95032.19;;;25.55;69.47
42247;BME280;27913;42.722;23.268;2023-06-24T16:45:14;95015.78;;;25.52;68.88
42247;BME280;27913;42.722;23.268;2023-06-24T16:47:40;95000.53;;;25.42;68.73
42247;BME280;27913;42.722;23.268;2023-06-24T16:50:06;94967.56;;;25.26;68.32
42247;BME280;27913;42.722;23.268;2023-06-24T16:52:32;94961.38;;;25.25;68.10
42247;BME280;27913;42.722;23.268;2023-06-24T16:55:01;94934.16;;;24.97;67.49
42247;BME280;27913;42.722;23.268;2023-06-24T16:57:27;94971.78;;;25.02;67.44
42247;BME280;27913;42.722;23.268;2023-06-24T16:59:52;94928.19;;;24.65;67.30
42247;BME280;27913;42.722;23.268;2023-06-24T17:02:18;94923.41;;;24.57;66.83
42247;BME280;27913;42.722;23.268;2023-06-24T17:04:43;95009.88;;;25.15;66.98
42247;BME280;27913;42.722;23.268;2023-06-24T17:07:09;95018.78;;;25.15;69.08
42247;BME280;27913;42.722;23.268;2023-06-24T17:09:35;95011.78;;;25.14;70.70
42247;BME280;27913;42.722;23.268;2023-06-24T17:12:00;94862.91;;;24.14;70.99
42247;BME280;27913;42.722;23.268;2023-06-24T17:14:26;95009.47;;;24.97;71.11
42247;BME280;27913;42.722;23.268;2023-06-24T17:16:52;95005.84;;;24.72;72.09
42247;BME280;27913;42.722;23.268;2023-06-24T17:19:19;95003.31;;;24.35;73.54
42247;BME280;27913;42.722;23.268;2023-06-24T17:21:44;94928.81;;;23.91;73.70
42247;BME280;27913;42.722;23.268;2023-06-24T17:24:10;95027.22;;;24.42;74.00
42247;BME280;27913;42.722;23.268;2023-06-24T17:26:35;95038.47;;;24.49;74.07
42247;BME280;27913;42.722;23.268;2023-06-24T17:29:01;95051.38;;;24.53;73.92
42247;BME280;27913;42.722;23.268;2023-06-24T17:31:27;95060.22;;;24.53;74.09
42247;BME280;27913;42.722;23.268;2023-06-24T17:33:52;95062.13;;;24.53;74.48
42247;BME280;27913;42.722;23.268;2023-06-24T17:36:18;95072.03;;;24.57;75.05
42247;BME280;27913;42.722;23.268;2023-06-24T17:38:44;94992.34;;;24.16;74.98
42247;BME280;27913;42.722;23.268;2023-06-24T17:41:10;94990.75;;;24.20;75.02
42247;BME280;27913;42.722;23.268;2023-06-24T17:43:35;94892.09;;;23.65;74.62
42247;BME280;27913;42.722;23.268;2023-06-24T17:46:01;94980.25;;;24.29;74.24
42247;BME280;27913;42.722;23.268;2023-06-24T17:48:26;95060.38;;;24.78;74.53
42247;BME280;27913;42.722;23.268;2023-06-24T17:50:52;95070.88;;;24.74;74.44
42247;BME280;27913;42.722;23.268;2023-06-24T17:53:17;95082.72;;;24.73;74.79
42247;BME280;27913;42.722;23.268;2023-06-24T17:55:43;95035.75;;;24.49;75.26
42247;BME280;27913;42.722;23.268;2023-06-24T17:58:09;95062.28;;;24.77;74.75
42247;BME280;27913;42.722;23.268;2023-06-24T18:00:34;95057.69;;;24.78;74.97
42247;BME280;27913;42.722;23.268;2023-06-24T18:03:06;95018.03;;;24.54;75.15
42247;BME280;27913;42.722;23.268;2023-06-24T18:05:32;95048.25;;;24.85;75.03
42247;BME280;27913;42.722;23.268;2023-06-24T18:07:58;94969.19;;;24.36;74.85
42247;BME280;27913;42.722;23.268;2023-06-24T18:10:24;94972.19;;;24.29;75.10
42247;BME280;27913;42.722;23.268;2023-06-24T18:12:50;95062.78;;;24.79;75.31
42247;BME280;27913;42.722;23.268;2023-06-24T18:15:15;95062.00;;;24.79;75.82
42247;BME280;27913;42.722;23.268;2023-06-24T18:17:41;95075.97;;;24.81;76.74
42247;BME280;27913;42.722;23.268;2023-06-24T18:20:07;95065.47;;;24.79;77.03
42247;BME280;27913;42.722;23.268;2023-06-24T18:22:33;95053.13;;;24.78;75.96
42247;BME280;27913;42.722;23.268;2023-06-24T18:25:01;95060.94;;;24.75;76.17
42247;BME280;27913;42.722;23.268;2023-06-24T18:27:27;95067.41;;;24.68;75.96
42247;BME280;27913;42.722;23.268;2023-06-24T18:29:52;94969.81;;;24.12;75.82
42247;BME280;27913;42.722;23.268;2023-06-24T18:32:18;95041.59;;;24.67;75.61
42247;BME280;27913;42.722;23.268;2023-06-24T18:34:43;95034.34;;;24.68;75.40
42247;BME280;27913;42.722;23.268;2023-06-24T18:37:09;95014.50;;;24.58;74.70
42247;BME280;27913;42.722;23.268;2023-06-24T18:39:34;95019.91;;;24.48;75.83
42247;BME280;27913;42.722;23.268;2023-06-24T18:42:00;95022.38;;;24.39;76.42
42247;BME280;27913;42.722;23.268;2023-06-24T18:44:25;95016.00;;;24.24;76.57
42247;BME280;27913;42.722;23.268;2023-06-24T18:46:51;95008.75;;;24.09;77.59
42247;BME280;27913;42.722;23.268;2023-06-24T18:49:16;95017.91;;;24.03;78.02
42247;BME280;27913;42.722;23.268;2023-06-24T18:51:42;95008.50;;;24.00;78.24
42247;BME280;27913;42.722;23.268;2023-06-24T18:54:07;95005.81;;;24.00;78.33
42247;BME280;27913;42.722;23.268;2023-06-24T18:56:33;94991.88;;;23.93;78.33
42247;BME280;27913;42.722;23.268;2023-06-24T18:58:58;94990.28;;;23.92;78.77
42247;BME280;27913;42.722;23.268;2023-06-24T19:01:24;94886.25;;;23.21;78.61
42247;BME280;27913;42.722;23.268;2023-06-24T19:03:49;95028.09;;;24.06;78.40
42247;BME280;27913;42.722;23.268;2023-06-24T19:06:15;95007.22;;;23.87;78.19
42247;BME280;27913;42.722;23.268;2023-06-24T19:08:40;95003.16;;;23.85;78.18
42247;BME280;27913;42.722;23.268;2023-06-24T19:11:06;94974.78;;;23.63;78.12
42247;BME280;27913;42.722;23.268;2023-06-24T19:13:31;94965.13;;;23.57;78.36
42247;BME280;27913;42.722;23.268;2023-06-24T19:15:57;95047.97;;;24.10;78.43
42247;BME280;27913;42.722;23.268;2023-06-24T19:18:22;94994.63;;;23.67;78.42
42247;BME280;27913;42.722;23.268;2023-06-24T19:20:47;95034.34;;;23.81;79.61
42247;BME280;27913;42.722;23.268;2023-06-24T19:23:13;95061.41;;;23.84;81.25
42247;BME280;27913;42.722;23.268;2023-06-24T19:25:39;94972.91;;;23.27;82.28
42247;BME280;27913;42.722;23.268;2023-06-24T19:28:04;95048.56;;;23.76;83.56
42247;BME280;27913;42.722;23.268;2023-06-24T19:30:30;95043.47;;;23.64;85.48
42247;BME280;27913;42.722;23.268;2023-06-24T19:32:55;94951.72;;;22.99;86.36
42247;BME280;27913;42.722;23.268;2023-06-24T19:35:21;95034.63;;;23.43;87.33
42247;BME280;27913;42.722;23.268;2023-06-24T19:37:46;94955.97;;;22.69;89.18
42247;BME280;27913;42.722;23.268;2023-06-24T19:40:12;94984.13;;;22.77;90.49
42247;BME280;27913;42.722;23.268;2023-06-24T19:42:38;95028.13;;;23.02;91.18
42247;BME280;27913;42.722;23.268;2023-06-24T19:45:04;95031.63;;;23.08;91.17
42247;BME280;27913;42.722;23.268;2023-06-24T19:47:30;95032.44;;;23.13;90.96
42247;BME280;27913;42.722;23.268;2023-06-24T19:49:56;95027.34;;;23.17;90.92
42247;BME280;27913;42.722;23.268;2023-06-24T19:52:23;95026.25;;;23.23;90.77
42247;BME280;27913;42.722;23.268;2023-06-24T19:54:49;94965.09;;;22.84;90.50
42247;BME280;27913;42.722;23.268;2023-06-24T19:57:14;94998.38;;;23.14;90.52
42247;BME280;27913;42.722;23.268;2023-06-24T19:59:40;95027.63;;;23.36;90.29
42247;BME280;27913;42.722;23.268;2023-06-24T20:02:06;95029.75;;;23.34;89.90
42247;BME280;27913;42.722;23.268;2023-06-24T20:04:32;95024.66;;;23.27;89.93
42247;BME280;27913;42.722;23.268;2023-06-24T20:06:57;94976.88;;;22.88;90.37
42247;BME280;27913;42.722;23.268;2023-06-24T20:09:23;95047.19;;;23.21;90.80
42247;BME280;27913;42.722;23.268;2023-06-24T20:11:48;95052.03;;;23.19;91.00
42247;BME280;27913;42.722;23.268;2023-06-24T20:14:14;95062.47;;;23.15;90.67
42247;BME280;27913;42.722;23.268;2023-06-24T20:16:39;95069.44;;;23.06;91.84
42247;BME280;27913;42.722;23.268;2023-06-24T20:19:05;95060.00;;;22.88;92.33
42247;BME280;27913;42.722;23.268;2023-06-24T20:21:30;95068.00;;;22.77;92.70
42247;BME280;27913;42.722;23.268;2023-06-24T20:23:55;95086.00;;;22.87;93.58
42247;BME280;27913;42.722;23.268;2023-06-24T20:26:21;95077.94;;;22.77;94.06
42247;BME280;27913;42.722;23.268;2023-06-24T20:28:46;95020.34;;;22.20;96.42
42247;BME280;27913;42.722;23.268;2023-06-24T20:31:12;95029.91;;;22.06;98.45
42247;BME280;27913;42.722;23.268;2023-06-24T20:33:38;94988.50;;;21.76;98.64
42247;BME280;27913;42.722;23.268;2023-06-24T20:36:03;95028.22;;;21.89;100.00
42247;BME280;27913;42.722;23.268;2023-06-24T20:38:29;95018.53;;;21.83;100.00
42247;BME280;27913;42.722;23.268;2023-06-24T20:40:57;95007.22;;;21.76;100.00
42247;BME280;27913;42.722;23.268;2023-06-24T20:43:23;95019.34;;;21.83;100.00
42247;BME280;27913;42.722;23.268;2023-06-24T20:45:50;95020.56;;;21.70;96.18
42247;BME280;27913;42.722;23.268;2023-06-24T20:48:15;95030.53;;;21.75;94.96
42247;BME280;27913;42.722;23.268;2023-06-24T20:53:06;95011.25;;;21.78;95.19
42247;BME280;27913;42.722;23.268;2023-06-24T20:55:31;95067.97;;;22.13;96.17
42247;BME280;27913;42.722;23.268;2023-06-24T20:57:57;95024.19;;;21.87;97.91
42247;BME280;27913;42.722;23.268;2023-06-24T21:00:23;95071.22;;;22.15;98.60
42247;BME280;27913;42.722;23.268;2023-06-24T21:02:48;95102.19;;;22.54;98.44
42247;BME280;27913;42.722;23.268;2023-06-24T21:05:14;95079.97;;;22.54;97.17
42247;BME280;27913;42.722;23.268;2023-06-24T21:07:39;95110.59;;;22.68;96.56
42247;BME280;27913;42.722;23.268;2023-06-24T21:10:05;95111.94;;;22.66;96.65
42247;BME280;27913;42.722;23.268;2023-06-24T21:12:30;94994.78;;;21.97;96.15
42247;BME280;27913;42.722;23.268;2023-06-24T21:14:56;95118.66;;;22.79;95.86
42247;BME280;27913;42.722;23.268;2023-06-24T21:17:24;95054.44;;;22.41;95.75
42247;BME280;27913;42.722;23.268;2023-06-24T21:19:49;95066.78;;;22.37;97.52
42247;BME280;27913;42.722;23.268;2023-06-24T21:22:15;95115.41;;;22.66;100.00
42247;BME280;27913;42.722;23.268;2023-06-24T21:24:41;95118.59;;;22.63;100.00
42247;BME280;27913;42.722;23.268;2023-06-24T21:27:06;95040.88;;;22.04;100.00
42247;BME280;27913;42.722;23.268;2023-06-24T21:29:32;94945.84;;;21.15;100.00
42247;BME280;27913;42.722;23.268;2023-06-24T21:31:57;95127.47;;;22.20;100.00
42247;BME280;27913;42.722;23.268;2023-06-24T21:34:24;95077.59;;;21.76;100.00
42247;BME280;27913;42.722;23.268;2023-06-24T21:36:49;95050.88;;;21.43;100.00
42247;BME280;27913;42.722;23.268;2023-06-24T21:39:14;95066.97;;;21.48;100.00
42247;BME280;27913;42.722;23.268;2023-06-24T21:41:40;95142.78;;;21.65;100.00
42247;BME280;27913;42.722;23.268;2023-06-24T21:44:08;95146.72;;;21.52;100.00
42247;BME280;27913;42.722;23.268;2023-06-24T21:46:37;95019.56;;;20.56;100.00
42247;BME280;27913;42.722;23.268;2023-06-24T21:49:02;95165.28;;;21.36;100.00
42247;BME280;27913;42.722;23.268;2023-06-24T21:51:31;95113.09;;;21.06;100.00
42247;BME280;27913;42.722;23.268;2023-06-24T21:53:56;95165.47;;;21.29;100.00
42247;BME280;27913;42.722;23.268;2023-06-24T21:56:22;95174.38;;;21.12;100.00
42247;BME280;27913;42.722;23.268;2023-06-24T21:58:47;95161.91;;;20.96;100.00
42247;BME280;27913;42.722;23.268;2023-06-24T22:01:12;95167.50;;;20.94;100.00
42247;BME280;27913;42.722;23.268;2023-06-24T22:03:39;95162.53;;;20.86;100.00
42247;BME280;27913;42.722;23.268;2023-06-24T22:06:05;95131.09;;;20.48;100.00
42247;BME280;27913;42.722;23.268;2023-06-24T22:08:30;95087.47;;;20.20;100.00
42247;BME280;27913;42.722;23.268;2023-06-24T22:10:56;95181.13;;;20.75;100.00
42247;BME280;27913;42.722;23.268;2023-06-24T22:13:21;95193.38;;;20.71;100.00
42247;BME280;27913;42.722;23.268;2023-06-24T22:15:46;95201.41;;;20.54;100.00
42247;BME280;27913;42.722;23.268;2023-06-24T22:18:12;95204.25;;;20.47;100.00
42247;BME280;27913;42.722;23.268;2023-06-24T22:20:38;95195.66;;;20.45;100.00
42247;BME280;27913;42.722;23.268;2023-06-24T22:23:03;95183.31;;;20.39;100.00
42247;BME280;27913;42.722;23.268;2023-06-24T22:25:28;95184.91;;;20.40;100.00
42247;BME280;27913;42.722;23.268;2023-06-24T22:27:54;95179.91;;;20.26;100.00
42247;BME280;27913;42.722;23.268;2023-06-24T22:30:21;95149.66;;;20.03;100.00
42247;BME280;27913;42.722;23.268;2023-06-24T22:32:46;95187.84;;;20.21;100.00
42247;BME280;27913;42.722;23.268;2023-06-24T22:35:12;95149.91;;;20.02;100.00
42247;BME280;27913;42.722;23.268;2023-06-24T22:37:37;95166.59;;;20.09;100.00
42247;BME280;27913;42.722;23.268;2023-06-24T22:40:05;95124.38;;;19.89;100.00
42247;BME280;27913;42.722;23.268;2023-06-24T22:42:30;95162.88;;;20.10;100.00
42247;BME280;27913;42.722;23.268;2023-06-24T22:44:56;95167.22;;;19.99;100.00
42247;BME280;27913;42.722;23.268;2023-06-24T22:47:21;95168.00;;;19.83;100.00
42247;BME280;27913;42.722;23.268;2023-06-24T22:49:47;95169.78;;;19.77;100.00
42247;BME280;27913;42.722;23.268;2023-06-24T22:52:12;95167.44;;;19.80;100.00
42247;BME280;27913;42.722;23.268;2023-06-24T22:54:38;95117.84;;;19.50;100.00
42247;BME280;27913;42.722;23.268;2023-06-24T22:57:04;95157.91;;;19.85;100.00
42247;BME280;27913;42.722;23.268;2023-06-24T22:59:29;95154.59;;;19.95;100.00
42247;BME280;27913;42.722;23.268;2023-06-24T23:01:55;95055.91;;;19.43;100.00
42247;BME280;27913;42.722;23.268;2023-06-24T23:04:20;95040.28;;;19.35;100.00
42247;BME280;27913;42.722;23.268;2023-06-24T23:06:46;95110.72;;;19.85;100.00
42247;BME280;27913;42.722;23.268;2023-06-24T23:09:12;95137.88;;;19.99;100.00
42247;BME280;27913;42.722;23.268;2023-06-24T23:11:37;95081.34;;;19.68;100.00
42247;BME280;27913;42.722;23.268;2023-06-24T23:14:03;95123.88;;;19.92;100.00
42247;BME280;27913;42.722;23.268;2023-06-24T23:16:29;95100.75;;;19.80;100.00
42247;BME280;27913;42.722;23.268;2023-06-24T23:18:55;95107.81;;;19.70;100.00
42247;BME280;27913;42.722;23.268;2023-06-24T23:21:21;95114.81;;;19.76;100.00
42247;BME280;27913;42.722;23.268;2023-06-24T23:23:47;94994.78;;;19.07;100.00
42247;BME280;27913;42.722;23.268;2023-06-24T23:26:15;95107.53;;;19.88;100.00
42247;BME280;27913;42.722;23.268;2023-06-24T23:28:41;95115.63;;;19.94;100.00
42247;BME280;27913;42.722;23.268;2023-06-24T23:31:11;95111.66;;;19.96;100.00
42247;BME280;27913;42.722;23.268;2023-06-24T23:33:38;95111.91;;;19.95;100.00
42247;BME280;27913;42.722;23.268;2023-06-24T23:36:04;95015.88;;;19.26;100.00
42247;BME280;27913;42.722;23.268;2023-06-24T23:38:29;95013.38;;;19.19;100.00
42247;BME280;27913;42.722;23.268;2023-06-24T23:40:56;95065.84;;;19.48;100.00
42247;BME280;27913;42.722;23.268;2023-06-24T23:43:23;95098.25;;;19.74;100.00
42247;BME280;27913;42.722;23.268;2023-06-24T23:45:49;95011.53;;;19.37;100.00
42247;BME280;27913;42.722;23.268;2023-06-24T23:48:19;95075.19;;;19.85;100.00
42247;BME280;27913;42.722;23.268;2023-06-24T23:50:45;95083.28;;;19.90;100.00
42247;BME280;27913;42.722;23.268;2023-06-24T23:53:11;94986.25;;;19.39;100.00
42247;BME280;27913;42.722;23.268;2023-06-24T23:55:37;95071.38;;;19.98;100.00
42247;BME280;27913;42.722;23.268;2023-06-24T23:58:02;95010.13;;;19.68;100.00
